Terminal Aerodrome Forecast
Issued by NWS

Home | Current Version | Previous Version | Text Only | Print | Product List | Glossary On
Versions: 1 2 3 4 5 6 7 8 9 10 11 12 13 14 15 16 17 18 19 20
541
FTUS41 KBGM 061742
TAFRME
TAF
KRME 061742Z 0618/0718 03005KT P6SM OVC120
     FM061900 08006KT P6SM -SHRA OVC060
      TEMPO 0621/0624 5SM -SHRA BR OVC025
     FM070300 11007KT P6SM OVC020
     FM070600 11007KT P6SM OVC015
     FM071200 12006KT P6SM BKN025=

USA.gov is the U.S. government's official web portal to all federal, state and local government web resources and services.